Tiempo atmosférico en la estación meteorológica de L?Estartit, Girona (1 m.)



Fecha
DESCASC
Temp. máxima en grados centígrados (hora)
DESCASC
Temp. mínima en grados centígrados (hora)
DESCASC
Temp. media en grados centígrados
DESCASC
Racha de viento máxima en m/sg (hora)
DESCASC
Velocidad máxima media en intervalos de 10 minutos(hora)
DESCASC
Precipitaciones diarias en mm
DESCASC
Precipitaciones de 00:00 a 06:00 en mm
DESCASC
Precipitaciones de 06:00 a 12:00 en mm
DESCASC
Precipitaciones de 12:00 a 18:00 en mm
DESCASC
Precipitaciones de 18:00 a 24:00 en mm
DESCASC

Gráficas

Temp. máximas Temp. mínimas Temp. medias Precipitaciones Rachas de viento máximas Velocidades máximas media en intervalos de 10 minutos

Datos horarios

Fecha y hora oficial Temperatura (ºC) Velocidad del viento (km/h) Dirección del viento Racha (km/h) Dirección de racha Precipitación (mm) Presión (hPa) Tendencia (hPa) Humedad (%)
2020-01-25 23:00:00 11.9 0 Calma 4 Sur 0 -- -- 92
2020-01-25 22:00:00 12.1 0 Calma 5 Sudoeste 0 -- -- 91
2020-01-25 21:00:00 12.3 4 Sudoeste 8 Oeste 0 -- -- 91
2020-01-25 20:00:00 12.2 3 Sur 13 Sur 0 -- -- 91
2020-01-25 19:00:00 12.3 3 Sudoeste 14 Sudeste 0 -- -- 90
2020-01-25 18:00:00 12.5 0 Calma 5 Sur 0 -- -- 89
2020-01-25 17:00:00 12.8 3 Este 10 Sudeste 0 -- -- 88
2020-01-25 16:00:00 13.5 4 Sudeste 16 Sudeste 0 -- -- 87
2020-01-25 15:00:00 13.2 11 Sudeste 18 Sudeste 0 -- -- 88
2020-01-25 14:00:00 12.4 3 Sudeste 7 Sudeste 0 -- -- 89
2020-01-25 13:00:00 11.6 0 Calma 6 Sur 0 -- -- 92
2020-01-25 12:00:00 10.8 2 Este 4 Este 0 -- -- 94
2020-01-25 11:00:00 9.7 0 Calma 4 Oeste 0 -- -- 95
2020-01-25 10:00:00 8.2 0 Calma 5 Sudoeste 0 -- -- 95
2020-01-25 09:00:00 7.8 2 Oeste 6 Sudoeste 0 -- -- 95
2020-01-25 08:00:00 8.5 0 Calma 17 Norte 0 -- -- 95
2020-01-25 07:00:00 8 9 Noroeste 15 Norte 0 -- -- 96
2020-01-25 06:00:00 6.9 0 Calma 5 Oeste 0 -- -- 96
2020-01-25 05:00:00 6.8 0 Calma 7 Oeste 0 -- -- 95
2020-01-25 04:00:00 7.3 3 Oeste 18 Norte 0 -- -- 95
2020-01-25 03:00:00 8.2 6 Oeste 16 Noroeste 0 -- -- 95
2020-01-25 02:00:00 7.9 4 Noroeste 9 Noroeste 0 -- -- 94
2020-01-25 01:00:00 7.6 2 Oeste 8 Oeste 0 -- -- 93
2020-01-25 00:00:00 8.2 4 Oeste 11 Sudoeste 0 -- -- 93
2020-01-24 23:00:00 9.3 9 Noroeste 17 Noroeste 0 -- -- 92
2020-01-24 22:00:00 8.9 2 Oeste 12 Oeste 0 -- -- 91
2020-01-24 21:00:00 9.5 5 Noroeste 12 Noroeste 0 -- -- 89
2020-01-24 20:00:00 10.1 8 Noroeste 11 Noroeste 0 -- -- 88
2020-01-24 19:00:00 10.9 6 Noroeste 10 Noroeste 0 -- -- 86
2020-01-24 18:00:00 12.4 3 Nordeste 12 Este 0 -- -- 81
2020-01-24 17:00:00 13.3 7 Este 14 Este 0 -- -- 79
2020-01-24 16:00:00 13.7 8 Este 13 Este 0 -- -- 77
2020-01-24 15:00:00 13.3 7 Este 17 Este 0 -- -- 78
2020-01-24 14:00:00 12.4 8 Este 15 Este 0 -- -- 78
2020-01-24 13:00:00 13.1 4 Sudeste 10 Sudeste 0 -- -- 77
2020-01-24 12:00:00 13.2 2 Este 8 Sudeste 0 -- -- 83
2020-01-24 11:00:00 10.9 5 Oeste 15 Oeste 0 -- -- 91
2020-01-24 10:00:00 8.5 3 Oeste 20 Noroeste 0 -- -- 93
2020-01-24 09:00:00 6.6 2 Noroeste 9 Oeste 0 -- -- 94
2020-01-24 08:00:00 6.6 4 Oeste 15 Oeste 0 -- -- 92
2020-01-24 07:00:00 6.7 4 Oeste 11 Noroeste 0 -- -- 92
2020-01-24 06:00:00 7.2 5 Noroeste 15 Noroeste 0 -- -- 92
2020-01-24 05:00:00 7.4 0 Calma 5 Oeste 0 -- -- 90
2020-01-24 04:00:00 8 4 Oeste 12 Noroeste 0 -- -- 89
2020-01-24 03:00:00 9.3 0 Calma 11 Noroeste 0 -- -- 87
2020-01-24 02:00:00 10.4 5 Oeste 12 Oeste 0 -- -- 90
2020-01-24 01:00:00 10.2 3 Oeste 8 Oeste 0 -- -- 92
2020-01-24 00:00:00 10.7 4 Oeste 9 Oeste 0 -- -- 92
2020-01-23 23:00:00 10.7 0 Calma 5 Sur 0 -- -- 91
2020-01-23 22:00:00 11.3 0 Calma 11 Sur 0 -- -- 90
2020-01-23 21:00:00 11.4 6 Sur 14 Sur 0 -- -- 89
2020-01-23 20:00:00 12.2 7 Sur 12 Sur 0 -- -- 88
2020-01-23 19:00:00 12.4 0 Calma 11 Sudoeste 0 -- -- 87
2020-01-23 18:00:00 13.1 7 Sudoeste 16 Sur 0 -- -- 85
2020-01-23 17:00:00 13.8 12 Sudeste 22 Sudeste 0 -- -- 84
2020-01-23 16:00:00 14.9 9 Sudeste 22 Sur 0 -- -- 76
2020-01-23 15:00:00 15.2 11 Sudeste 23 Sur 0 -- -- 76
2020-01-23 14:00:00 15.6 13 Sur 28 Sur -- -- -- 70
2020-01-23 13:00:00 15.3 6 Sur 12 Oeste 91.8 -- -- 84
2020-01-23 12:00:00 13.9 8 Sudoeste 42 Sur -- -- -- 89
2020-01-23 11:00:00 12.5 18 Sur 41 Sur -- -- -- 91
2020-01-23 10:00:00 14.1 22 Sudeste 43 Este 143.6 -- -- 92
2020-01-23 09:00:00 14.1 28 Sudeste 53 Sudeste 136.2 -- -- 93
2020-01-23 08:00:00 13.7 26 Sudeste 43 Este 98 -- -- 93
2020-01-23 07:00:00 13.5 27 Este 50 Este 57.6 -- -- 93
2020-01-23 06:00:00 13.5 27 Este 44 Este 5.4 -- -- 92
2020-01-23 05:00:00 13.7 28 Este 50 Este 1 -- -- 92
2020-01-23 04:00:00 13.8 16 Este 48 Este 0.2 -- -- 91
2020-01-23 03:00:00 13.8 25 Este 42 Sudeste 0.6 -- -- 91
2020-01-23 02:00:00 13.9 17 Este 35 Este 0.2 -- -- 91
2020-01-23 01:00:00 14 19 Este 33 Este 0 -- -- 91
2020-01-23 00:00:00 14 15 Este 32 Este 0 -- -- 91
2020-01-22 23:00:00 14.1 14 Este 34 Este 0 -- -- 89
2020-01-22 22:00:00 14.1 15 Este 37 Este 0 -- -- 89
2020-01-22 21:00:00 14.2 18 Este 44 Este 0 -- -- 88
2020-01-22 20:00:00 14.3 26 Este 48 Este 0 -- -- 88
2020-01-22 19:00:00 14.1 24 Este 46 Este 0 -- -- 89
2020-01-22 18:00:00 14.2 25 Este 51 Este 0 -- -- 88
2020-01-22 17:00:00 14.2 27 Este 44 Este 0 -- -- 89
2020-01-22 16:00:00 14.2 24 Este 48 Este 0.2 -- -- 90
2020-01-22 15:00:00 14.1 23 Este 50 Este 0 -- -- 90
2020-01-22 14:00:00 14.1 22 Este 48 Este 0 -- -- 90
2020-01-22 13:00:00 14 21 Este 42 Este 0 -- -- 90
2020-01-22 12:00:00 14.3 21 Este 44 Este 0 -- -- 88
2020-01-22 11:00:00 14.4 26 Sudeste 47 Sudeste 0 -- -- 88
2020-01-22 10:00:00 14.5 30 Sudeste 50 Este 0 -- -- 88
2020-01-22 09:00:00 14.4 31 Sudeste 55 Este 0 -- -- 88
2020-01-22 08:00:00 14.2 33 Este 57 Este 0 -- -- 89
2020-01-22 07:00:00 13.8 38 Este 66 Este 0 -- -- 90
2020-01-22 06:00:00 13 37 Este 86 Este 0 -- -- 89
2020-01-22 05:00:00 13.4 37 Este 69 Este 4.2 -- -- 90
2020-01-22 04:00:00 13.1 41 Este 75 Este 0.8 -- -- 89
2020-01-22 03:00:00 12.9 28 Este 76 Este 2.2 -- -- 89
2020-01-22 02:00:00 12.7 31 Este 73 Sudeste 4.2 -- -- 90
2020-01-22 01:00:00 12.8 33 Este 83 Este 3 -- -- 89
2020-01-22 00:00:00 13.5 40 Este 84 Este 0 -- -- 77
2020-01-21 23:00:00 13.5 37 Este 72 Este 0.2 -- -- 77
2020-01-21 22:00:00 13.1 35 Este 66 Este 0.2 -- -- 78
2020-01-21 21:00:00 13.2 33 Este 69 Este 0 -- -- 76
2020-01-21 20:00:00 12.8 32 Este 68 Este 0 -- -- 76
2020-01-21 19:00:00 12.6 34 Este 66 Este 0 -- -- 76
2020-01-21 18:00:00 12.6 30 Este 63 Este 0 -- -- 75
2020-01-21 17:00:00 12.6 34 Este 69 Este 0 -- -- 75
2020-01-21 16:00:00 12.5 31 Este 59 Este 0 -- -- 76
2020-01-21 15:00:00 12.5 32 Este 65 Este 0 -- -- 76
2020-01-21 14:00:00 12.4 36 Este 77 Este 0 -- -- 75
2020-01-21 13:00:00 12.4 34 Este 78 Este 0.2 -- -- 77
2020-01-21 12:00:00 12.1 43 Este 80 Este 0.4 -- -- 80
2020-01-21 11:00:00 11.6 37 Este 75 Este 1 -- -- 83
2020-01-21 10:00:00 11.6 38 Este 82 Este 0.6 -- -- 83
2020-01-21 09:00:00 11.6 37 Este 74 Este 0.4 -- -- 80
2020-01-21 08:00:00 11.5 40 Este 79 Este 0.2 -- -- 80
2020-01-21 07:00:00 11.8 42 Este 81 Este 0 -- -- 77
2020-01-21 06:00:00 11.6 35 Este 76 Este 0 -- -- 79
2020-01-21 05:00:00 11.6 39 Este 73 Este 0 -- -- 79
2020-01-21 04:00:00 10.9 40 Este 73 Este 1.8 -- -- 84
2020-01-21 03:00:00 11 41 Este 83 Este 1.4 -- -- 82
2020-01-21 02:00:00 10.8 34 Este 68 Este 5.2 -- -- 84
2020-01-21 01:00:00 10.6 31 Este 60 Este 5.4 -- -- 83
2020-01-21 00:00:00 10.5 24 Sudeste 62 Sudeste 2.6 -- -- 84
2020-01-20 23:00:00 10.3 17 Sudeste 60 Este 3.6 -- -- 84
2020-01-20 22:00:00 10.3 24 Sudeste 60 Este 2.2 -- -- 82
2020-01-20 21:00:00 10.2 23 Sudeste 57 Este 2 -- -- 81
2020-01-20 20:00:00 10.1 27 Sudeste 62 Sudeste 2 -- -- 81
2020-01-20 19:00:00 10.1 29 Sudeste 67 Este 1.2 -- -- 80
2020-01-20 18:00:00 10.3 23 Sudeste 72 Este 1.8 -- -- 79
2020-01-20 17:00:00 10 19 Sudeste 53 Este 2.6 -- -- 81
2020-01-20 16:00:00 9.2 15 Nordeste 55 Sudeste 2.8 -- -- 86
2020-01-20 15:00:00 8.6 14 Nordeste 42 Nordeste 5 -- -- 89
2020-01-20 14:00:00 5.6 14 Noroeste 40 Norte 3.4 -- -- 89
2020-01-20 13:00:00 5.4 15 Noroeste 37 Oeste 3.8 -- -- 86
2020-01-20 12:00:00 5.4 16 Noroeste 41 Noroeste 4.2 -- -- 86
2020-01-20 11:00:00 6.3 12 Noroeste 48 Noroeste 2.6 -- -- 83
2020-01-20 10:00:00 6.9 15 Noroeste 42 Noroeste 1.2 -- -- 75
2020-01-20 09:00:00 7.6 16 Noroeste 41 Noroeste 0 -- -- 65
2020-01-20 08:00:00 7.7 15 Noroeste 45 Norte 0 -- -- 58
2020-01-20 07:00:00 7.7 15 Noroeste 39 Nordeste 0 -- -- 54
2020-01-20 06:00:00 7.8 14 Noroeste 41 Norte 0 -- -- 52
2020-01-20 05:00:00 7.7 16 Noroeste 48 Noroeste 0 -- -- 51
2020-01-20 04:00:00 7.7 14 Noroeste 46 Norte 0 -- -- 48
2020-01-20 03:00:00 8 15 Noroeste 48 Norte 0 -- -- 48
2020-01-20 02:00:00 8.3 16 Noroeste 49 Nordeste 0 -- -- 45
2020-01-20 01:00:00 8.4 15 Noroeste 46 Norte 0 -- -- 46
2020-01-20 00:00:00 8.6 14 Noroeste 44 Noroeste 0 -- -- 46
2020-01-19 23:00:00 9 13 Noroeste 46 Norte 0 -- -- 45
2020-01-19 22:00:00 9.4 14 Noroeste 40 Noroeste 0 -- -- 44
2020-01-19 21:00:00 9.8 15 Noroeste 45 Norte 0 -- -- 43
2020-01-19 20:00:00 10 15 Noroeste 40 Norte 0 -- -- 43
2020-01-19 19:00:00 10.3 15 Noroeste 38 Norte 0 -- -- 42
2020-01-19 18:00:00 10.6 15 Noroeste 42 Noroeste 0 -- -- 43
2020-01-19 17:00:00 10.6 14 Noroeste 44 Noroeste 0 -- -- 44
2020-01-19 16:00:00 10.8 12 Nordeste 48 Este 0 -- -- 46
2020-01-19 15:00:00 11.2 10 Este 38 Este 0 -- -- 45
2020-01-19 14:00:00 11 13 Oeste 42 Noroeste 0 -- -- 44
2020-01-19 13:00:00 10.4 14 Noroeste 41 Noroeste 0 -- -- 45
2020-01-19 12:00:00 10.7 13 Noroeste 51 Norte 0 -- -- 48
2020-01-19 11:00:00 10.1 11 Oeste 41 Norte 0 -- -- 53
2020-01-19 10:00:00 9.5 12 Noroeste 42 Noroeste 0 -- -- 57
2020-01-19 09:00:00 9 9 Noroeste 34 Norte 0 -- -- 65
2020-01-19 08:00:00 8.8 10 Noroeste 29 Norte 0 -- -- 67
2020-01-19 07:00:00 9 9 Noroeste 23 Noroeste 0 -- -- 74
2020-01-19 06:00:00 9.3 10 Noroeste 27 Noroeste 0.2 -- -- 75
2020-01-19 05:00:00 9.5 10 Noroeste 23 Norte 0 -- -- 75
2020-01-19 04:00:00 9.2 13 Nordeste 27 Norte 0.2 -- -- 82
2020-01-19 03:00:00 9.7 11 Nordeste 25 Nordeste 1.2 -- -- 83
2020-01-19 02:00:00 9.4 10 Norte 29 Norte 0 -- -- 89
2020-01-19 01:00:00 8.2 3 Oeste 6 Oeste 0 -- -- 84
2020-01-19 00:00:00 9.5 3 Oeste 18 Sudeste 0 -- -- 79
2020-01-18 23:00:00 12.1 12 Sudeste 19 Sudeste 0 -- -- 79
2020-01-18 22:00:00 12.2 12 Sudeste 21 Sudeste 0 -- -- 78
2020-01-18 21:00:00 12.1 11 Sudeste 18 Sudeste 0 -- -- 78
2020-01-18 20:00:00 11.9 11 Sudeste 17 Sudeste 0 -- -- 75
2020-01-18 19:00:00 11.7 10 Sudeste 16 Este 0 -- -- 73
2020-01-18 18:00:00 11.7 10 Sudeste 17 Sudeste 0 -- -- 72
2020-01-18 17:00:00 12.1 11 Sudeste 18 Este 0 -- -- 69
2020-01-18 16:00:00 11.9 9 Este 16 Este 0 -- -- 68
2020-01-18 15:00:00 12.5 9 Este 16 Este 0 -- -- 66
2020-01-18 14:00:00 13.2 7 Sudeste 10 Sudeste 0 -- -- 60
2020-01-18 13:00:00 13.2 5 Sudeste 11 Oeste 0 -- -- 60
2020-01-18 12:00:00 11.5 8 Oeste 13 Sudoeste 0.2 -- -- 67
2020-01-18 11:00:00 9.5 2 Sudeste 7 Oeste 0 -- -- 76
2020-01-18 10:00:00 7.3 4 Oeste 15 Norte 0 -- -- 79
2020-01-18 09:00:00 6.9 5 Oeste 18 Noroeste 0 -- -- 79
2020-01-18 08:00:00 6.2 3 Sudoeste 14 Noroeste 0 -- -- 84
2020-01-18 07:00:00 6.3 6 Oeste 14 Noroeste 0 -- -- 85
2020-01-18 06:00:00 5.3 5 Oeste 11 Oeste 0 -- -- 86
2020-01-18 05:00:00 5.5 2 Sudoeste 9 Sudoeste 0 -- -- 84
2020-01-18 04:00:00 6.7 3 Oeste 16 Noroeste 0 -- -- 77
2020-01-18 03:00:00 6.3 6 Noroeste 11 Noroeste 0 -- -- 80
2020-01-18 02:00:00 6.8 5 Noroeste 9 Noroeste 0 -- -- 79
2020-01-18 01:00:00 6.9 0 Calma 7 Oeste 0 -- -- 82
2020-01-18 00:00:00 7.3 3 Oeste 13 Norte 0 -- -- 78
2020-01-17 23:00:00 7.9 5 Noroeste 10 Oeste 0 -- -- 78
2020-01-17 22:00:00 8.8 3 Noroeste 14 Noroeste 0 -- -- 71
2020-01-17 21:00:00 9.1 7 Noroeste 13 Norte 0 -- -- 72
2020-01-17 20:00:00 10.3 6 Noroeste 27 Nordeste 0 -- -- 73
2020-01-17 19:00:00 10.4 12 Nordeste 30 Noroeste 2.4 -- -- 73
2020-01-17 18:00:00 11.6 15 Noroeste 35 Noroeste 0 -- -- 65
2020-01-17 17:00:00 12.6 12 Norte 43 Noroeste 0 -- -- 58
2020-01-17 16:00:00 13.2 17 Noroeste 41 Norte 0 -- -- 56
2020-01-17 15:00:00 14.9 12 Este 21 Este 0 -- -- 72
2020-01-17 14:00:00 14.7 11 Sudeste 17 Sudeste 0 -- -- 71
2020-01-17 13:00:00 14.6 8 Sudeste 15 Este 0 -- -- 66
2020-01-17 12:00:00 14.2 9 Sudeste 15 Sudeste 0 -- -- 69
2020-01-17 11:00:00 13.8 4 Sudeste 8 Sudeste 0 -- -- 72
2020-01-17 10:00:00 12.3 4 Sur 15 Norte 0 -- -- 77
2020-01-17 09:00:00 10 6 Noroeste 21 Noroeste 0 -- -- 81
2020-01-17 08:00:00 11.6 6 Noroeste 18 Oeste 0 -- -- 76
2020-01-17 07:00:00 11.8 8 Oeste 16 Sudoeste 0 -- -- 77
2020-01-17 06:00:00 11.3 8 Sudoeste 14 Oeste 0 -- -- 81
2020-01-17 05:00:00 11.3 8 Oeste 19 Oeste 0 -- -- 83
2020-01-17 04:00:00 11.9 9 Oeste 18 Oeste 0 -- -- 85
2020-01-17 03:00:00 11.9 4 Noroeste 22 Sudoeste 0 -- -- 85
2020-01-17 02:00:00 12.5 11 Sudoeste 26 Sudoeste 0 -- -- 84
2020-01-17 01:00:00 12.8 9 Sudoeste 23 Sudoeste 0 -- -- 83
2020-01-17 00:00:00 12.6 5 Oeste 19 Sudoeste 0 -- -- 84
2020-01-16 23:00:00 12.1 8 Sudoeste 28 Sudoeste 0 -- -- 85
2020-01-16 22:00:00 12.2 6 Sudoeste 17 Sudoeste 0 -- -- 87
2020-01-16 21:00:00 12.2 4 Sudoeste 14 Sudoeste 0 -- -- 87
2020-01-16 20:00:00 12.6 5 Sur 19 Sur 0 -- -- 86
2020-01-16 19:00:00 12.7 9 Sur 16 Sudoeste 0 -- -- 84
2020-01-16 18:00:00 12.8 5 Sudoeste 22 Sur 0 -- -- 79
2020-01-16 17:00:00 14 15 Sudoeste 26 Sudoeste 0 -- -- 73
2020-01-16 16:00:00 14.3 17 Sudoeste 27 Sudoeste 0 -- -- 73
2020-01-16 15:00:00 14.5 17 Sur 26 Sudoeste 0 -- -- 67
2020-01-16 14:00:00 14.4 15 Sur 26 Sudoeste 0 -- -- 71
2020-01-16 13:00:00 14 5 Sudeste 8 Sur 0 -- -- 71
2020-01-16 12:00:00 13.3 2 Sur 6 Oeste 0 -- -- 70
2020-01-16 11:00:00 10.7 3 Oeste 8 Oeste 0 -- -- 76
2020-01-16 10:00:00 8.1 0 Calma 8 Oeste 0 -- -- 84
2020-01-16 09:00:00 6 0 Calma 10 Oeste 0 -- -- 88
2020-01-16 08:00:00 5.3 7 Oeste 15 Sudoeste 0 -- -- 87
2020-01-16 07:00:00 5.3 3 Oeste 9 Oeste 0 -- -- 87
2020-01-16 06:00:00 5.1 3 Oeste 8 Oeste 0 -- -- 87
2020-01-16 05:00:00 4.8 3 Oeste 10 Oeste 0 -- -- 86
2020-01-16 04:00:00 6.2 6 Oeste 19 Noroeste 0 -- -- 84
2020-01-16 03:00:00 5 6 Oeste 10 Oeste 0 -- -- 87
2020-01-16 02:00:00 5.6 3 Oeste 12 Oeste 0 -- -- 85
2020-01-16 01:00:00 7.6 8 Noroeste 17 Noroeste 0 -- -- 83
2020-01-16 00:00:00 7.3 5 Oeste 13 Noroeste 0 -- -- 84
2020-01-15 23:00:00 7.8 4 Noroeste 11 Noroeste 0 -- -- 84
2020-01-15 22:00:00 8.7 6 Oeste 13 Noroeste 0 -- -- 79
2020-01-15 21:00:00 9.6 9 Noroeste 15 Noroeste 0 -- -- 77
2020-01-15 20:00:00 10.3 6 Noroeste 9 Noroeste 0 -- -- 74
2020-01-15 19:00:00 12 4 Noroeste 9 Oeste 0 -- -- 71
2020-01-15 18:00:00 12.2 4 Oeste 21 Sudoeste 0 -- -- 74
2020-01-15 17:00:00 13.5 13 Sudoeste 31 Sur 0 -- -- 71
2020-01-15 16:00:00 13.9 17 Sur 28 Sudoeste 0 -- -- 74
2020-01-15 15:00:00 14 18 Sur 37 Sudoeste 0 -- -- 74
2020-01-15 14:00:00 14.4 21 Sudoeste 44 Sudoeste 0 -- -- 72
2020-01-15 13:00:00 14.6 23 Sur 40 Sur 0 -- -- 70
2020-01-15 12:00:00 14.5 23 Sur 37 Sudoeste 0 -- -- 70
2020-01-15 11:00:00 13.8 17 Sur 35 Sur 0 -- -- 73
2020-01-15 10:00:00 12.7 12 Sur 21 Sur 0 -- -- 77
2020-01-15 09:00:00 11.2 8 Sudoeste 16 Sur 0 -- -- 79
2020-01-15 08:00:00 11 7 Sudoeste 17 Sur 0 -- -- 79
2020-01-15 07:00:00 11 8 Sur 23 Sur 0 -- -- 78
2020-01-15 06:00:00 11.5 14 Sur 22 Sur 0 -- -- 80
2020-01-15 05:00:00 10.7 12 Sudoeste 21 Sur 0 -- -- 81
2020-01-15 04:00:00 10.7 11 Sudoeste 22 Sudoeste 0 -- -- 80
2020-01-15 03:00:00 10.7 7 Sudoeste 15 Sudoeste 0 -- -- 81
2020-01-15 02:00:00 11.2 12 Sudoeste 23 Sudoeste 0 -- -- 79
2020-01-15 01:00:00 11.7 13 Sudoeste 27 Sudoeste 0 -- -- 77
2020-01-15 00:00:00 12.1 12 Sur 23 Sudoeste 0 -- -- 77
2020-01-14 23:00:00 11.1 9 Sudoeste 22 Sudoeste 0 -- -- 77
2020-01-14 22:00:00 11.3 12 Sudoeste 22 Sudoeste 0 -- -- 76
2020-01-14 21:00:00 11.6 14 Sudoeste 28 Sudoeste 0 -- -- 75
2020-01-14 20:00:00 12 13 Sudoeste 30 Sudoeste 0 -- -- 72
2020-01-14 19:00:00 11.9 17 Sudoeste 32 Sudoeste 0 -- -- 65
2020-01-14 18:00:00 12.4 14 Sudoeste 32 Sudoeste 0 -- -- 66
2020-01-14 17:00:00 13.8 18 Sur 38 Sudoeste 0 -- -- 64
2020-01-14 16:00:00 14.4 23 Sur 39 Sudoeste 0 -- -- 63
2020-01-14 15:00:00 14.8 21 Sur 36 Sur 0 -- -- 51
2020-01-14 14:00:00 14.7 22 Sur 31 Sudoeste 0 -- -- 61
2020-01-14 13:00:00 13.5 3 Sudeste 7 Este 0 -- -- 59
2020-01-14 12:00:00 12 3 Sudeste 5 Sur 0 -- -- 67
2020-01-14 11:00:00 9.6 0 Calma 5 Oeste 0 -- -- 82
2020-01-14 10:00:00 4.7 3 Oeste 8 Sudoeste 0 -- -- 91
2020-01-14 09:00:00 2.5 3 Oeste 10 Noroeste 0 -- -- 93
2020-01-14 08:00:00 2.7 6 Noroeste 11 Oeste 0 -- -- 92
2020-01-14 07:00:00 3.7 5 Noroeste 11 Noroeste 0 -- -- 92
2020-01-14 06:00:00 3.1 4 Oeste 10 Oeste 0 -- -- 91
2020-01-14 05:00:00 2.5 4 Oeste 10 Oeste 0 -- -- 90
2020-01-14 04:00:00 2.8 5 Oeste 8 Oeste 0 -- -- 88
2020-01-14 03:00:00 3.7 5 Oeste 14 Norte 0 -- -- 85
2020-01-14 02:00:00 6.2 10 Norte 19 Noroeste 0 -- -- 83
2020-01-14 01:00:00 5.8 7 Noroeste 13 Noroeste 0 -- -- 84
2020-01-14 00:00:00 5.3 0 Calma 8 Noroeste 0 -- -- 86
2020-01-13 23:00:00 5.1 0 Calma 7 Noroeste 0 -- -- 86
2020-01-13 22:00:00 6 4 Oeste 9 Oeste 0 -- -- 83
2020-01-13 21:00:00 6.8 4 Noroeste 8 Noroeste 0 -- -- 80
2020-01-13 20:00:00 7.6 4 Noroeste 9 Noroeste 0 -- -- 77
2020-01-13 19:00:00 8.9 4 Noroeste 8 Noroeste 0 -- -- 73
2020-01-13 18:00:00 10.1 2 Noroeste 9 Sudoeste 0 -- -- 73
2020-01-13 17:00:00 11.6 6 Sudeste 14 Sudeste 0 -- -- 70
2020-01-13 16:00:00 12.2 9 Sudeste 14 Sudeste 0 -- -- 70
2020-01-13 15:00:00 12.6 7 Este 10 Sudeste 0 -- -- 64
2020-01-13 14:00:00 12.9 6 Sudeste 10 Este 0 -- -- 63
2020-01-13 13:00:00 12.2 3 Sudeste 5 Sudeste 0 -- -- 65
2020-01-13 12:00:00 10.3 0 Calma 4 Sudoeste 0 -- -- 70
2020-01-13 11:00:00 6.9 0 Calma 6 Oeste 0 -- -- 76
2020-01-13 10:00:00 3.2 0 Calma 8 Oeste 0 -- -- 86
2020-01-13 09:00:00 1.4 2 Oeste 9 Oeste 0 -- -- 88
2020-01-13 08:00:00 0.8 4 Oeste 10 Oeste 0 -- -- 88
2020-01-13 07:00:00 1.1 4 Oeste 10 Oeste 0 -- -- 88
2020-01-13 06:00:00 1.4 3 Oeste 8 Oeste 0 -- -- 88
2020-01-13 05:00:00 1.4 5 Noroeste 9 Oeste 0 -- -- 87
2020-01-13 04:00:00 2 0 Calma 8 Oeste 0 -- -- 86
2020-01-13 03:00:00 2.3 4 Oeste 16 Oeste 0 -- -- 84
2020-01-13 02:00:00 5.2 9 Noroeste 16 Noroeste 0 -- -- 81
2020-01-13 01:00:00 3.4 5 Noroeste 8 Noroeste 0 -- -- 86
2020-01-13 00:00:00 3.7 2 Oeste 5 Sudoeste 0 -- -- 85
2020-01-12 23:00:00 4.6 4 Oeste 8 Oeste 0 -- -- 82
2020-01-12 22:00:00 6.9 4 Noroeste 14 Noroeste 0 -- -- 74
2020-01-12 21:00:00 6.7 3 Noroeste 8 Noroeste 0 -- -- 80
2020-01-12 20:00:00 7.8 2 Noroeste 9 Noroeste 0 -- -- 80
2020-01-12 19:00:00 8 5 Noroeste 7 Noroeste 0 -- -- 79
2020-01-12 18:00:00 8.8 5 Noroeste 7 Norte 0 -- -- 73
2020-01-12 17:00:00 12 0 Calma 8 Sudeste 0 -- -- 62
2020-01-12 16:00:00 12.3 6 Este 12 Sudeste 0 -- -- 60
2020-01-12 15:00:00 12.7 3 Sudeste 11 Sudeste 0 -- -- 58
2020-01-12 14:00:00 13.1 2 Sudeste 8 Sudeste 0 -- -- 56
2020-01-12 13:00:00 12.2 4 Sur 8 Sudeste 0 -- -- 60
2020-01-12 12:00:00 10.7 4 Sur 8 Sudoeste 0 -- -- 66
2020-01-12 11:00:00 8.8 4 Sudoeste 7 Oeste 0 -- -- 73
2020-01-12 10:00:00 5.1 3 Oeste 7 Oeste 0 -- -- 86
2020-01-12 09:00:00 2.1 0 Calma 7 Oeste 0 -- -- 91
2020-01-12 08:00:00 1.3 3 Oeste 7 Sudoeste 0 -- -- 90
2020-01-12 07:00:00 1.4 0 Calma 7 Oeste 0 -- -- 89
2020-01-12 06:00:00 1.5 4 Oeste 6 Sudoeste 0 -- -- 88
2020-01-12 05:00:00 1.8 3 Oeste 12 Oeste 0 -- -- 87
2020-01-12 04:00:00 3.2 9 Oeste 14 Noroeste 0 -- -- 84
2020-01-12 03:00:00 3.6 4 Oeste 13 Noroeste 0 -- -- 85
2020-01-12 02:00:00 3.6 5 Oeste 9 Oeste 0 -- -- 83
2020-01-12 01:00:00 4.8 6 Oeste 22 Oeste 0 -- -- 80
2020-01-12 00:00:00 6 14 Noroeste 23 Norte 0 -- -- 77
2020-01-11 23:00:00 5.9 10 Noroeste 23 Noroeste 0 -- -- 74
2020-01-11 22:00:00 6.3 3 Oeste 9 Noroeste 0 -- -- 71
2020-01-11 21:00:00 8.7 6 Noroeste 13 Noroeste 0 -- -- 63
2020-01-11 20:00:00 10.2 5 Noroeste 12 Noroeste 0 -- -- 61
2020-01-11 19:00:00 11 5 Noroeste 12 Norte 0 -- -- 58
2020-01-11 18:00:00 11.5 4 Noroeste 15 Noroeste 0 -- -- 56
2020-01-11 17:00:00 13.1 4 Noroeste 18 Norte 0 -- -- 50
2020-01-11 16:00:00 13.3 5 Noroeste 23 Norte 0 -- -- 50
2020-01-11 15:00:00 13.1 10 Norte 26 Norte 0 -- -- 49
2020-01-11 14:00:00 13.6 8 Noroeste 31 Norte 0 -- -- 46
2020-01-11 13:00:00 13.4 7 Norte 30 Nordeste 0 -- -- 46
2020-01-11 12:00:00 13 10 Noroeste 32 Norte 0 -- -- 46
2020-01-11 11:00:00 12.8 8 Noroeste 22 Nordeste 0 -- -- 46
2020-01-11 10:00:00 11.6 11 Oeste 25 Norte 0 -- -- 48
2020-01-11 09:00:00 9.6 10 Oeste 18 Oeste 0 -- -- 58
2020-01-11 08:00:00 8.8 8 Noroeste 22 Noroeste 0 -- -- 61
2020-01-11 07:00:00 10.1 9 Noroeste 18 Norte 0 -- -- 58
2020-01-11 06:00:00 10.6 8 Noroeste 24 Noroeste 0 -- -- 57
2020-01-11 05:00:00 10.7 9 Noroeste 18 Noroeste 0 -- -- 55
2020-01-11 04:00:00 10.9 7 Noroeste 23 Norte 0 -- -- 55
2020-01-11 03:00:00 11.4 7 Noroeste 22 Noroeste 0 -- -- 54
2020-01-11 02:00:00 11.6 9 Noroeste 26 Norte 0 -- -- 54
2020-01-11 01:00:00 11.7 12 Noroeste 29 Noroeste 0 -- -- 56
2020-01-11 00:00:00 11.2 13 Noroeste 30 Noroeste 0 -- -- 62
2020-01-10 23:00:00 11.2 10 Noroeste 30 Noroeste 0 -- -- 61
2020-01-10 22:00:00 11.6 11 Noroeste 33 Noroeste 0 -- -- 61
2020-01-10 21:00:00 11.8 10 Noroeste 30 Noroeste 0 -- -- 61
2020-01-10 20:00:00 12.2 15 Noroeste 33 Noroeste 0 -- -- 59
2020-01-10 19:00:00 12.4 9 Noroeste 32 Noroeste 0 -- -- 58
2020-01-10 18:00:00 13.1 11 Noroeste 22 Noroeste 0 -- -- 57
2020-01-10 17:00:00 13.9 5 Noroeste 29 Noroeste 0 -- -- 58
2020-01-10 16:00:00 15 6 Norte 23 Noroeste 0 -- -- 52
2020-01-10 15:00:00 14.7 13 Noroeste 24 Noroeste 0 -- -- 50
2020-01-10 14:00:00 14.2 7 Noroeste 25 Oeste 0 -- -- 57
2020-01-10 13:00:00 13.4 6 Noroeste 22 Noroeste 0 -- -- 63
2020-01-10 12:00:00 12.2 4 Noroeste 9 Noroeste 0 -- -- 73
2020-01-10 11:00:00 10.5 0 Calma 10 Noroeste 0 -- -- 89
2020-01-10 10:00:00 9.4 7 Noroeste 12 Noroeste 0.2 -- -- 92
2020-01-10 09:00:00 9.4 3 Noroeste 6 Noroeste 0.4 -- -- 91
2020-01-10 08:00:00 9.7 3 Noroeste 5 Noroeste 1.4 -- -- 90
2020-01-10 07:00:00 10.2 0 Calma 13 Este 1 -- -- 88
2020-01-10 06:00:00 10.2 5 Este 19 Noroeste 1 -- -- 89
2020-01-10 05:00:00 11.2 7 Noroeste 13 Sudoeste 0 -- -- 82
2020-01-10 04:00:00 11 0 Calma 8 Oeste 0 -- -- 80
2020-01-10 03:00:00 11.1 3 Norte 6 Norte 0 -- -- 79
2020-01-10 02:00:00 11.2 2 Norte 7 Nordeste 0 -- -- 76
2020-01-10 01:00:00 11.6 3 Norte 10 Sudoeste 0 -- -- 74
2020-01-10 00:00:00 11.7 8 Oeste 15 Sudoeste 0 -- -- 73
2020-01-09 23:00:00 11.5 6 Sudoeste 16 Oeste 0 -- -- 74
2020-01-09 22:00:00 11.8 14 Sudoeste 31 Sudoeste 0 -- -- 76
2020-01-09 21:00:00 11.9 16 Sudoeste 35 Sudoeste 0 -- -- 78
2020-01-09 20:00:00 12.3 19 Sudoeste 35 Sudoeste 0 -- -- 79
2020-01-09 19:00:00 12.4 17 Sudoeste 32 Oeste 0 -- -- 80
2020-01-09 18:00:00 12.5 14 Sudoeste 28 Sur 0 -- -- 79
2020-01-09 17:00:00 13.6 11 Sudoeste 34 Sudoeste 0 -- -- 75
2020-01-09 16:00:00 14.2 20 Sur 37 Sur 0 -- -- 73
2020-01-09 15:00:00 14.5 23 Sur 39 Sur 0 -- -- 72
2020-01-09 14:00:00 14.7 22 Sur 33 Sudoeste 0 -- -- 72
2020-01-09 13:00:00 14.7 21 Sudoeste 31 Sudoeste 0 -- -- 70
2020-01-09 12:00:00 14.3 10 Sur 19 Sudoeste 0 -- -- 73
2020-01-09 11:00:00 12.4 6 Oeste 13 Sudoeste 0 -- -- 83
2020-01-09 10:00:00 9.6 0 Calma 10 Sudoeste 0 -- -- 91
2020-01-09 09:00:00 5.3 0 Calma 7 Oeste 0 -- -- 92
2020-01-09 08:00:00 5.3 2 Oeste 8 Oeste 0 -- -- 91
2020-01-09 07:00:00 6.5 3 Oeste 7 Oeste 0 -- -- 93
2020-01-09 06:00:00 3.5 4 Noroeste 8 Oeste 0 -- -- 92
2020-01-09 05:00:00 3.3 2 Oeste 6 Noroeste 0 -- -- 91
2020-01-09 04:00:00 4.3 4 Noroeste 9 Noroeste 0 -- -- 91
2020-01-09 03:00:00 4 3 Oeste 7 Oeste 0 -- -- 91
2020-01-09 02:00:00 4.7 2 Oeste 7 Noroeste 0 -- -- 90
2020-01-09 01:00:00 5.6 4 Oeste 8 Oeste 0 -- -- 90
2020-01-09 00:00:00 6.7 5 Noroeste 10 Noroeste 0 -- -- 90
2020-01-08 23:00:00 7.6 3 Noroeste 10 Noroeste 0 -- -- 90
2020-01-08 22:00:00 8.6 6 Noroeste 10 Noroeste 0 -- -- 90
2020-01-08 21:00:00 8.7 3 Noroeste 9 Noroeste 0 -- -- 89
2020-01-08 20:00:00 9.6 2 Noroeste 10 Noroeste 0 -- -- 87
2020-01-08 19:00:00 10.4 6 Noroeste 10 Noroeste 0 -- -- 85
2020-01-08 18:00:00 12.2 2 Noroeste 8 Nordeste 0 -- -- 80
2020-01-08 17:00:00 14.3 5 Sudeste 13 Este 0 -- -- 76
2020-01-08 16:00:00 14.8 6 Este 19 Este 0 -- -- 74
2020-01-08 15:00:00 15.2 4 Este 22 Norte 0 -- -- 74
2020-01-08 14:00:00 14.7 8 Nordeste 22 Norte 0 -- -- 74
2020-01-08 13:00:00 14.6 9 Nordeste 25 Norte 0 -- -- 70
2020-01-08 12:00:00 14.7 11 Nordeste 27 Nordeste 0 -- -- 69
2020-01-08 11:00:00 15.1 6 Nordeste 21 Este 0 -- -- 68
2020-01-08 10:00:00 15 6 Oeste 15 Oeste 0 -- -- 66
2020-01-08 09:00:00 13.3 6 Noroeste 17 Noroeste 0 -- -- 74
2020-01-08 08:00:00 13 6 Noroeste 19 Noroeste 0 -- -- 74
2020-01-08 07:00:00 13 8 Noroeste 22 Nordeste 0 -- -- 77
2020-01-08 06:00:00 12.6 5 Norte 20 Este 0 -- -- 77
2020-01-08 05:00:00 12.8 8 Noroeste 19 Nordeste 0 -- -- 77
2020-01-08 04:00:00 9.5 3 Noroeste 12 Oeste 0 -- -- 77
2020-01-08 03:00:00 10.7 8 Noroeste 14 Noroeste 0 -- -- 75
2020-01-08 02:00:00 11 2 Oeste 18 Noroeste 0 -- -- 69
2020-01-08 01:00:00 12.9 9 Noroeste 24 Noroeste 0 -- -- 67
2020-01-08 00:00:00 13.7 11 Noroeste 27 Norte 0 -- -- 65
2020-01-07 23:00:00 13.4 9 Noroeste 18 Noroeste 0 -- -- 65
2020-01-07 22:00:00 11.8 2 Oeste 18 Noroeste 0 -- -- 68
2020-01-07 21:00:00 13.4 5 Noroeste 22 Sudoeste 0 -- -- 63
2020-01-07 20:00:00 14.3 13 Oeste 28 Oeste 0 -- -- 62
2020-01-07 19:00:00 12.9 9 Noroeste 15 Noroeste 0 -- -- 68
2020-01-07 18:00:00 12.5 4 Noroeste 9 Noroeste 0 -- -- 72
2020-01-07 17:00:00 14 4 Noroeste 9 Sur 0 -- -- 67
2020-01-07 16:00:00 15 4 Sudeste 7 Sudeste 0 -- -- 65
2020-01-07 15:00:00 14.6 2 Sudeste 8 Sur 0 -- -- 66
2020-01-07 14:00:00 13.6 4 Sudeste 12 Sudeste 0 -- -- 67
2020-01-07 13:00:00 13.3 9 Sudeste 13 Este 0 -- -- 67
2020-01-07 12:00:00 11.3 4 Sudoeste 12 Sudoeste 0 -- -- 77
2020-01-07 11:00:00 8.1 3 Sur 12 Oeste 0 -- -- 87
2020-01-07 10:00:00 5.9 6 Oeste 15 Noroeste 0 -- -- 89
2020-01-07 09:00:00 5.1 8 Oeste 16 Noroeste 0 -- -- 91
2020-01-07 08:00:00 3.5 3 Oeste 6 Oeste 0 -- -- 90
2020-01-07 07:00:00 5.7 4 Oeste 19 Noroeste 0 -- -- 91
2020-01-07 06:00:00 5.8 7 Noroeste 15 Norte 0 -- -- 92
2020-01-07 05:00:00 6.3 10 Noroeste 21 Noroeste 0 -- -- 92
2020-01-07 04:00:00 5.7 3 Noroeste 11 Noroeste 0 -- -- 92
2020-01-07 03:00:00 6.4 4 Noroeste 10 Oeste 0 -- -- 93
2020-01-07 02:00:00 6.2 7 Oeste 12 Oeste 0 -- -- 91
2020-01-07 01:00:00 6.7 4 Noroeste 13 Oeste 0 -- -- 91
2020-01-07 00:00:00 6.3 4 Oeste 13 Noroeste 0 -- -- 88
2020-01-06 23:00:00 8.9 9 Noroeste 20 Noroeste 0 -- -- 88
2020-01-06 22:00:00 9 12 Noroeste 20 Noroeste 0 -- -- 88
2020-01-06 21:00:00 9.2 9 Noroeste 17 Noroeste 0 -- -- 87
2020-01-06 20:00:00 9.7 6 Noroeste 11 Noroeste 0 -- -- 84
2020-01-06 19:00:00 10.2 7 Noroeste 10 Noroeste 0 -- -- 83
2020-01-06 18:00:00 11.3 6 Noroeste 9 Este 0 -- -- 80
2020-01-06 17:00:00 13.7 6 Este 12 Este 0 -- -- 73
2020-01-06 16:00:00 14.5 6 Este 10 Este 0 -- -- 66
2020-01-06 15:00:00 14.8 6 Este 10 Sudeste 0 -- -- 63
2020-01-06 14:00:00 14.2 3 Sudeste 8 Sudeste 0 -- -- 66
2020-01-06 13:00:00 12.4 0 Calma 5 Sudeste 0 -- -- 69
2020-01-06 12:00:00 10 0 Calma 7 Sudoeste 0 -- -- 71
2020-01-06 11:00:00 8.1 0 Calma 13 Oeste 0 -- -- 71
2020-01-06 10:00:00 7.2 5 Sudoeste 9 Sudoeste 0 -- -- 74